Time;durP1;ratioP1;P1;durP2;ratioP2;P2;SDS_P1;SDS_P2;PMS_P1;PMS_P2;Temp;Humidity;BMP_temperature;BMP_pressure;BME280_temperature;BME280_humidity;BME280_pressure;Samples;Min_cycle;Max_cycle;Signal;HPM_P1;HPM_P2
2023/11/18 00:01:31;;;;;;;18.40;9.50;;;;;;;;;;5063449;28;20104;-89
2023/11/18 00:03:56;;;;;;;19.93;10.03;;;;;;;;;;5053053;28;20096;-90
2023/11/18 00:06:21;;;;;;;20.63;10.23;;;;;;;;;;5051352;28;20036;-90
2023/11/18 00:08:47;;;;;;;23.80;10.07;;;;;;;;;;5051922;28;20065;-90
2023/11/18 00:11:13;;;;;;;19.87;10.43;;;;;;;;;;5051550;28;20025;-90
2023/11/18 00:13:42;;;;;;;24.37;10.97;;;;;;;;;;5050765;28;20067;-90
2023/11/18 00:16:11;;;;;;;21.07;9.47;;;;;;;;;;5051356;28;20013;-89
2023/11/18 00:18:37;;;;;;;22.60;10.07;;;;;;;;;;5051368;28;20035;-90
2023/11/18 00:21:02;;;;;;;30.47;11.67;;;;;;;;;;5048821;28;20018;-89
2023/11/18 00:23:29;;;;;;;19.17;10.17;;;;;;;;;;5055297;28;20090;-89
2023/11/18 00:25:54;;;;;;;21.30;10.30;;;;;;;;;;5050745;28;20027;-90
2023/11/18 00:28:20;;;;;;;20.50;10.30;;;;;;;;;;5052340;28;20447;-90
2023/11/18 00:30:45;;;;;;;26.83;10.60;;;;;;;;;;5051259;28;20480;-89
2023/11/18 00:33:11;;;;;;;19.63;9.67;;;;;;;;;;5065560;28;20127;-90
2023/11/18 00:35:36;;;;;;;21.20;10.10;;;;;;;;;;5053371;28;20098;-90
2023/11/18 00:38:02;;;;;;;20.80;9.67;;;;;;;;;;5051507;28;20332;-89
2023/11/18 00:40:29;;;;;;;21.83;9.67;;;;;;;;;;5054216;28;20127;-89
2023/11/18 00:42:54;;;;;;;16.83;9.33;;;;;;;;;;5062085;28;20052;-90
2023/11/18 00:45:20;;;;;;;14.27;8.07;;;;;;;;;;5065368;28;20360;-90
2023/11/18 00:47:48;;;;;;;17.33;9.00;;;;;;;;;;5058510;28;20352;-90
2023/11/18 00:50:14;;;;;;;19.80;9.07;;;;;;;;;;5057944;28;20017;-89
2023/11/18 00:52:41;;;;;;;17.17;9.13;;;;;;;;;;5051311;28;20495;-89
2023/11/18 00:55:10;;;;;;;21.83;9.40;;;;;;;;;;5043336;28;20391;-89
2023/11/18 00:57:38;;;;;;;18.23;9.57;;;;;;;;;;5050691;28;20346;-89
2023/11/18 01:00:04;;;;;;;19.43;9.60;;;;;;;;;;5051256;28;20017;-89
2023/11/18 01:02:29;;;;;;;19.10;9.00;;;;;;;;;;5053434;28;20021;-90
2023/11/18 01:04:55;;;;;;;20.30;8.93;;;;;;;;;;5051861;28;20464;-90
2023/11/18 01:07:20;;;;;;;16.40;8.37;;;;;;;;;;5065003;28;20098;-89
2023/11/18 01:09:46;;;;;;;18.15;9.07;;;;;;;;;;5050906;28;20330;-89
2023/11/18 01:12:11;;;;;;;14.93;8.57;;;;;;;;;;5052400;28;20025;-90
2023/11/18 01:14:37;;;;;;;18.37;8.27;;;;;;;;;;5064652;28;20078;-90
2023/11/18 01:17:03;;;;;;;19.80;8.90;;;;;;;;;;5051809;28;20029;-89
2023/11/18 01:19:28;;;;;;;19.73;9.03;;;;;;;;;;5050278;28;20499;-89
2023/11/18 01:21:55;;;;;;;22.30;8.43;;;;;;;;;;5050202;28;20028;-90
2023/11/18 01:24:21;;;;;;;20.10;8.30;;;;;;;;;;5062214;28;20129;-89
2023/11/18 01:26:47;;;;;;;19.00;8.90;;;;;;;;;;5072677;28;20024;-90
2023/11/18 01:29:13;;;;;;;18.27;8.73;;;;;;;;;;5065442;28;20029;-89
2023/11/18 01:31:41;;;;;;;22.63;9.07;;;;;;;;;;5053374;28;20376;-89
2023/11/18 01:34:07;;;;;;;17.55;8.70;;;;;;;;;;5053562;28;20124;-90
2023/11/18 01:36:32;;;;;;;17.13;9.13;;;;;;;;;;5053834;28;20476;-89
2023/11/18 01:38:58;;;;;;;16.57;7.97;;;;;;;;;;5053976;28;20081;-90
2023/11/18 01:41:23;;;;;;;16.25;7.97;;;;;;;;;;5053177;28;20025;-89
2023/11/18 01:43:48;;;;;;;17.47;8.10;;;;;;;;;;5053322;28;20025;-90
2023/11/18 01:46:16;;;;;;;18.03;8.13;;;;;;;;;;5062207;28;20020;-89
2023/11/18 01:48:42;;;;;;;17.65;7.78;;;;;;;;;;5060431;28;20021;-89
2023/11/18 01:51:07;;;;;;;16.85;8.35;;;;;;;;;;5054951;28;20040;-90
2023/11/18 01:53:33;;;;;;;17.05;8.80;;;;;;;;;;5066698;28;20024;-89
2023/11/18 01:55:59;;;;;;;19.08;8.60;;;;;;;;;;5054169;28;20496;-89
2023/11/18 01:58:25;;;;;;;15.75;8.50;;;;;;;;;;5065462;28;20028;-90
2023/11/18 02:00:54;;;;;;;17.77;8.57;;;;;;;;;;5059448;28;20406;-90
2023/11/18 02:03:20;;;;;;;20.92;8.27;;;;;;;;;;5065853;28;20058;-90
2023/11/18 02:05:45;;;;;;;23.23;8.50;;;;;;;;;;5053386;28;20480;-90
2023/11/18 02:08:13;;;;;;;17.33;8.02;;;;;;;;;;5053265;28;20023;-90
2023/11/18 02:10:50;;;;;;;16.77;7.57;;;;;;;;;;5054956;28;20811;-90
2023/11/18 02:13:29;;;;;;;18.08;8.48;;;;;;;;;;5060480;28;20108;-89
2023/11/18 02:15:57;;;;;;;21.55;8.68;;;;;;;;;;5059682;28;20356;-90
2023/11/18 02:18:24;;;;;;;19.02;8.38;;;;;;;;;;5054615;28;20025;-89
2023/11/18 02:20:49;;;;;;;18.27;8.68;;;;;;;;;;5054052;28;20067;-89
2023/11/18 02:23:17;;;;;;;22.73;9.32;;;;;;;;;;5054847;28;20016;-89
2023/11/18 02:25:45;;;;;;;23.83;9.27;;;;;;;;;;5073416;28;20021;-89
2023/11/18 02:28:10;;;;;;;19.67;9.23;;;;;;;;;;5059970;28;20365;-89
2023/11/18 02:30:35;;;;;;;15.27;7.88;;;;;;;;;;5053432;28;20032;-89
2023/11/18 02:33:11;;;;;;;18.30;8.98;;;;;;;;;;5053170;28;20444;-89
2023/11/18 02:35:41;;;;;;;17.45;8.43;;;;;;;;;;5053090;28;20020;-90
2023/11/18 02:38:10;;;;;;;17.15;7.97;;;;;;;;;;5053110;28;20365;-90
2023/11/18 02:40:38;;;;;;;18.87;7.50;;;;;;;;;;5053106;28;20017;-89
2023/11/18 02:43:09;;;;;;;14.23;6.63;;;;;;;;;;5052891;28;20024;-90
2023/11/18 02:45:35;;;;;;;20.83;7.82;;;;;;;;;;5056974;28;20763;-89
2023/11/18 02:48:01;;;;;;;18.17;7.95;;;;;;;;;;5063813;28;20052;-89
2023/11/18 02:50:27;;;;;;;19.88;7.93;;;;;;;;;;5052682;28;20028;-89
2023/11/18 02:52:52;;;;;;;14.75;7.43;;;;;;;;;;5060260;28;20090;-90
2023/11/18 02:55:22;;;;;;;15.50;6.72;;;;;;;;;;5059054;28;20024;-89
2023/11/18 02:57:48;;;;;;;15.38;7.45;;;;;;;;;;5073570;28;20384;-89
2023/11/18 03:00:21;;;;;;;14.88;7.05;;;;;;;;;;5060924;28;20465;-90
2023/11/18 03:02:51;;;;;;;20.95;8.10;;;;;;;;;;5052650;28;20024;-90
2023/11/18 03:05:17;;;;;;;18.15;7.95;;;;;;;;;;5052804;28;20013;-89
2023/11/18 03:07:44;;;;;;;16.20;8.00;;;;;;;;;;5053575;28;20028;-89
2023/11/18 03:10:11;;;;;;;15.70;7.72;;;;;;;;;;5052224;28;20028;-90
2023/11/18 03:12:37;;;;;;;22.98;8.65;;;;;;;;;;5052090;28;20495;-90
2023/11/18 03:15:04;;;;;;;15.50;7.65;;;;;;;;;;5052575;28;20490;-90
2023/11/18 03:17:29;;;;;;;15.65;7.53;;;;;;;;;;5052380;28;20032;-89
2023/11/18 03:19:57;;;;;;;18.13;7.50;;;;;;;;;;5053579;28;20048;-90
2023/11/18 03:22:23;;;;;;;14.32;7.70;;;;;;;;;;5052080;28;20430;-90
2023/11/18 03:24:49;;;;;;;21.02;7.65;;;;;;;;;;5052296;28;20028;-90
2023/11/18 03:27:14;;;;;;;14.73;7.55;;;;;;;;;;5052196;28;20013;-90
2023/11/18 03:29:40;;;;;;;18.83;7.47;;;;;;;;;;5052303;28;20086;-90
2023/11/18 03:32:05;;;;;;;13.70;7.93;;;;;;;;;;5051849;28;20759;-90
2023/11/18 03:34:31;;;;;;;17.88;7.20;;;;;;;;;;5051623;28;20021;-90
2023/11/18 03:36:57;;;;;;;22.27;7.97;;;;;;;;;;5052105;28;20083;-89
2023/11/18 03:39:22;;;;;;;15.30;6.95;;;;;;;;;;5052382;28;20097;-90
2023/11/18 03:41:47;;;;;;;17.05;6.38;;;;;;;;;;5051700;28;20017;-90
2023/11/18 03:44:12;;;;;;;16.23;7.30;;;;;;;;;;5050208;28;20116;-89
2023/11/18 03:46:38;;;;;;;14.23;7.28;;;;;;;;;;5040494;28;20063;-90
2023/11/18 03:49:03;;;;;;;16.85;6.57;;;;;;;;;;5050974;28;20039;-90
2023/11/18 03:51:29;;;;;;;14.35;6.22;;;;;;;;;;5051903;28;20033;-89
2023/11/18 03:53:54;;;;;;;20.30;6.68;;;;;;;;;;5052071;28;20029;-90
2023/11/18 03:56:26;;;;;;;14.93;7.35;;;;;;;;;;5047917;28;20072;-90
2023/11/18 03:58:51;;;;;;;17.20;6.72;;;;;;;;;;5044466;28;20017;-89
2023/11/18 04:01:21;;;;;;;14.25;6.60;;;;;;;;;;5048490;28;20449;-90
2023/11/18 04:03:46;;;;;;;13.73;6.28;;;;;;;;;;5041767;28;20416;-90
2023/11/18 04:06:11;;;;;;;13.00;5.70;;;;;;;;;;5051473;28;20021;-90
2023/11/18 04:08:36;;;;;;;14.35;6.55;;;;;;;;;;5051197;28;20017;-90
2023/11/18 04:11:02;;;;;;;15.55;6.80;;;;;;;;;;5052441;28;20067;-90
2023/11/18 04:13:27;;;;;;;12.45;5.78;;;;;;;;;;5050495;28;20032;-90
2023/11/18 04:15:52;;;;;;;15.82;6.53;;;;;;;;;;5050490;28;20104;-90
2023/11/18 04:18:18;;;;;;;12.25;5.43;;;;;;;;;;5049961;28;20074;-90
2023/11/18 04:20:46;;;;;;;17.15;6.05;;;;;;;;;;5049576;28;20667;-89
2023/11/18 04:23:11;;;;;;;11.48;5.88;;;;;;;;;;5036471;28;20269;-89
2023/11/18 04:25:37;;;;;;;12.80;5.97;;;;;;;;;;5049591;28;20072;-90
2023/11/18 04:28:02;;;;;;;13.80;5.82;;;;;;;;;;5051100;28;20017;-90
2023/11/18 04:30:27;;;;;;;12.65;5.97;;;;;;;;;;5051354;28;20029;-90
2023/11/18 04:32:56;;;;;;;12.35;5.20;;;;;;;;;;5052174;28;20215;-89
2023/11/18 04:35:22;;;;;;;13.23;5.22;;;;;;;;;;5064975;28;20387;-90
2023/11/18 04:37:48;;;;;;;10.98;4.88;;;;;;;;;;5051154;28;20086;-89
2023/11/18 04:40:13;;;;;;;13.50;4.82;;;;;;;;;;5051508;28;20085;-90
2023/11/18 04:42:39;;;;;;;17.83;5.80;;;;;;;;;;5064984;28;20048;-90
2023/11/18 04:45:04;;;;;;;11.02;5.15;;;;;;;;;;5051064;28;20025;-90
2023/11/18 04:47:30;;;;;;;13.02;5.05;;;;;;;;;;5053967;28;20111;-89
2023/11/18 04:49:57;;;;;;;12.73;4.70;;;;;;;;;;5062300;28;20048;-89
2023/11/18 04:52:27;;;;;;;13.25;5.15;;;;;;;;;;5065165;28;20024;-90
2023/11/18 04:54:57;;;;;;;10.45;5.15;;;;;;;;;;5050796;28;20104;-89
2023/11/18 04:57:22;;;;;;;9.27;4.85;;;;;;;;;;5050609;28;20013;-89
2023/11/18 04:59:48;;;;;;;7.35;4.53;;;;;;;;;;5057286;28;20035;-89
2023/11/18 05:02:13;;;;;;;10.82;4.88;;;;;;;;;;5063196;28;20009;-90
2023/11/18 05:04:40;;;;;;;11.13;4.32;;;;;;;;;;5055795;28;20021;-90
2023/11/18 05:07:06;;;;;;;11.25;5.25;;;;;;;;;;5054862;28;20430;-89
2023/11/18 05:09:31;;;;;;;8.55;4.47;;;;;;;;;;5054599;28;20112;-90
2023/11/18 05:11:57;;;;;;;7.00;3.47;;;;;;;;;;5054323;28;20044;-89
2023/11/18 05:14:23;;;;;;;6.57;3.72;;;;;;;;;;5056591;28;20047;-89
2023/11/18 05:16:48;;;;;;;8.10;4.03;;;;;;;;;;5053815;28;20025;-88
2023/11/18 05:19:14;;;;;;;11.40;3.78;;;;;;;;;;5052558;28;20025;-89
2023/11/18 05:21:39;;;;;;;8.75;4.13;;;;;;;;;;5053711;28;20511;-89
2023/11/18 05:24:05;;;;;;;9.18;3.75;;;;;;;;;;5054035;28;20060;-89
2023/11/18 05:26:30;;;;;;;9.38;4.13;;;;;;;;;;5052808;28;20021;-90
2023/11/18 05:28:55;;;;;;;6.85;3.45;;;;;;;;;;5054163;28;20017;-89
2023/11/18 05:31:20;;;;;;;8.10;3.50;;;;;;;;;;5054693;28;20032;-90
2023/11/18 05:33:51;;;;;;;14.27;3.70;;;;;;;;;;5054149;28;20051;-89
2023/11/18 05:36:16;;;;;;;8.13;3.78;;;;;;;;;;5055314;28;20048;-89
2023/11/18 05:38:42;;;;;;;7.13;3.33;;;;;;;;;;5054333;28;20024;-89
2023/11/18 05:41:16;;;;;;;5.85;3.08;;;;;;;;;;5055379;28;20024;-90
2023/11/18 05:43:41;;;;;;;8.32;3.20;;;;;;;;;;5054320;28;20473;-90
2023/11/18 05:46:24;;;;;;;9.20;3.10;;;;;;;;;;5055532;28;20012;-90
2023/11/18 05:48:50;;;;;;;6.90;3.33;;;;;;;;;;5054364;28;20031;-90
2023/11/18 05:51:18;;;;;;;5.68;2.47;;;;;;;;;;5054246;28;20025;-90
2023/11/18 05:53:47;;;;;;;6.03;3.10;;;;;;;;;;5053884;28;20727;-90
2023/11/18 05:56:18;;;;;;;4.57;2.47;;;;;;;;;;5041459;28;20431;-90
2023/11/18 05:58:43;;;;;;;5.63;2.13;;;;;;;;;;5051985;28;20063;-89
2023/11/18 06:01:10;;;;;;;9.52;3.33;;;;;;;;;;5053483;28;20055;-90
2023/11/18 06:03:38;;;;;;;8.27;2.67;;;;;;;;;;5054651;28;20024;-90
2023/11/18 06:06:10;;;;;;;9.68;3.10;;;;;;;;;;5053561;28;20078;-90
2023/11/18 06:08:36;;;;;;;5.47;2.55;;;;;;;;;;5054178;28;20170;-90
2023/11/18 06:11:12;;;;;;;4.65;2.53;;;;;;;;;;5067198;28;20473;-89
2023/11/18 06:13:42;;;;;;;6.82;2.25;;;;;;;;;;5053749;28;20017;-90
2023/11/18 06:16:07;;;;;;;6.00;2.35;;;;;;;;;;5053530;28;20021;-90
2023/11/18 06:18:33;;;;;;;10.80;2.50;;;;;;;;;;5039243;28;20130;-89
2023/11/18 06:20:58;;;;;;;6.03;2.30;;;;;;;;;;5044478;28;20157;-90
2023/11/18 06:23:25;;;;;;;4.55;2.17;;;;;;;;;;5051117;28;20028;-89
2023/11/18 06:25:51;;;;;;;6.38;2.60;;;;;;;;;;5053554;28;20044;-90
2023/11/18 06:28:19;;;;;;;7.03;2.25;;;;;;;;;;5052976;28;20025;-89
2023/11/18 06:30:44;;;;;;;7.93;2.58;;;;;;;;;;5053250;28;20772;-89
2023/11/18 06:33:10;;;;;;;8.35;2.20;;;;;;;;;;5053977;28;20036;-89
2023/11/18 06:35:37;;;;;;;6.60;2.13;;;;;;;;;;5052987;28;20843;-90
2023/11/18 06:38:02;;;;;;;7.38;2.15;;;;;;;;;;5053110;28;20048;-89
2023/11/18 06:40:28;;;;;;;4.47;1.65;;;;;;;;;;5050084;28;20034;-89
2023/11/18 06:43:01;;;;;;;4.68;1.70;;;;;;;;;;5042916;28;20491;-89
2023/11/18 06:45:27;;;;;;;7.38;2.20;;;;;;;;;;5052983;28;20158;-89
2023/11/18 06:47:54;;;;;;;7.13;2.65;;;;;;;;;;5052893;28;20029;-89
2023/11/18 06:50:24;;;;;;;5.85;2.30;;;;;;;;;;5052986;28;20021;-90
2023/11/18 06:52:52;;;;;;;5.80;2.45;;;;;;;;;;5052375;28;20025;-89
2023/11/18 06:55:17;;;;;;;10.45;2.45;;;;;;;;;;5052684;28;20046;-89
2023/11/18 06:57:44;;;;;;;6.65;2.08;;;;;;;;;;5052442;28;20108;-90
2023/11/18 07:00:09;;;;;;;7.93;2.45;;;;;;;;;;5052662;28;20418;-88
2023/11/18 07:02:35;;;;;;;8.55;1.88;;;;;;;;;;5052880;28;20053;-89
2023/11/18 07:05:00;;;;;;;6.72;2.33;;;;;;;;;;5052238;28;20021;-89
2023/11/18 07:07:26;;;;;;;4.72;1.67;;;;;;;;;;5039763;28;20014;-89
2023/11/18 07:09:52;;;;;;;6.30;1.45;;;;;;;;;;5052743;28;20025;-90
2023/11/18 07:12:19;;;;;;;8.15;2.13;;;;;;;;;;5052306;28;20032;-89
2023/11/18 07:14:50;;;;;;;5.72;1.70;;;;;;;;;;5053195;28;20472;-90
2023/11/18 07:17:18;;;;;;;5.75;1.90;;;;;;;;;;5051529;28;20055;-89
2023/11/18 07:19:44;;;;;;;4.60;1.55;;;;;;;;;;5051373;28;20876;-90
2023/11/18 07:22:10;;;;;;;8.52;1.40;;;;;;;;;;5052777;28;20017;-90
2023/11/18 07:24:35;;;;;;;3.53;1.60;;;;;;;;;;5050634;28;20038;-89
2023/11/18 07:27:00;;;;;;;5.50;1.60;;;;;;;;;;5037539;28;20405;-89
2023/11/18 07:29:26;;;;;;;2.25;1.27;;;;;;;;;;5052177;28;20035;-89
2023/11/18 07:31:54;;;;;;;4.65;1.73;;;;;;;;;;5052922;28;20099;-89
2023/11/18 07:34:20;;;;;;;4.55;1.73;;;;;;;;;;5052834;28;20108;-89
2023/11/18 07:36:47;;;;;;;3.83;1.67;;;;;;;;;;5051501;28;20465;-90
2023/11/18 07:39:15;;;;;;;3.33;1.77;;;;;;;;;;5051816;28;20499;-90
2023/11/18 07:41:44;;;;;;;4.55;1.75;;;;;;;;;;5051839;28;20569;-90
2023/11/18 07:44:12;;;;;;;6.15;2.60;;;;;;;;;;5051829;28;20028;-90
2023/11/18 07:46:38;;;;;;;3.53;1.67;;;;;;;;;;5051389;28;20453;-90
2023/11/18 07:49:03;;;;;;;6.38;1.45;;;;;;;;;;5051587;28;20052;-90
2023/11/18 07:51:29;;;;;;;7.65;1.70;;;;;;;;;;5051799;28;20028;-90
2023/11/18 07:53:54;;;;;;;7.75;1.48;;;;;;;;;;5051453;28;20123;-90
2023/11/18 07:56:22;;;;;;;7.40;1.75;;;;;;;;;;5050642;28;20024;-90
2023/11/18 07:58:47;;;;;;;6.70;1.38;;;;;;;;;;5051781;28;20032;-90
2023/11/18 08:01:13;;;;;;;7.50;1.10;;;;;;;;;;5051501;28;20045;-90
2023/11/18 08:03:41;;;;;;;10.55;2.10;;;;;;;;;;5051538;28;20033;-90
2023/11/18 08:06:10;;;;;;;3.45;1.40;;;;;;;;;;5052240;28;20070;-90
2023/11/18 08:08:37;;;;;;;6.40;1.40;;;;;;;;;;5051712;28;20021;-90
2023/11/18 08:11:04;;;;;;;5.55;1.58;;;;;;;;;;5051256;28;20114;-88
2023/11/18 08:13:29;;;;;;;3.53;1.30;;;;;;;;;;5051042;28;20500;-90
2023/11/18 08:15:54;;;;;;;4.35;1.33;;;;;;;;;;5051360;28;20056;-89
2023/11/18 08:18:21;;;;;;;5.18;1.20;;;;;;;;;;5050738;28;20062;-90
2023/11/18 08:20:47;;;;;;;7.72;1.23;;;;;;;;;;5051396;28;20024;-90
2023/11/18 08:23:12;;;;;;;6.35;1.42;;;;;;;;;;5051461;28;20021;-90
2023/11/18 08:25:38;;;;;;;7.47;1.70;;;;;;;;;;5050896;28;20179;-90
2023/11/18 08:28:03;;;;;;;7.40;1.60;;;;;;;;;;5051363;28;20049;-90
2023/11/18 08:30:29;;;;;;;3.83;1.52;;;;;;;;;;5050943;28;20035;-90
2023/11/18 08:32:54;;;;;;;7.68;2.03;;;;;;;;;;5051704;28;20024;-90
2023/11/18 08:35:21;;;;;;;8.80;1.70;;;;;;;;;;5063379;28;20029;-91
2023/11/18 08:37:47;;;;;;;6.95;1.40;;;;;;;;;;5059031;28;20021;-90
2023/11/18 08:40:16;;;;;;;6.47;1.63;;;;;;;;;;5055522;28;20524;-90
2023/11/18 08:42:47;;;;;;;7.15;1.83;;;;;;;;;;5055419;28;20112;-90
2023/11/18 08:45:14;;;;;;;3.03;1.40;;;;;;;;;;5055103;28;20071;-90
2023/11/18 08:47:42;;;;;;;7.25;1.85;;;;;;;;;;5055218;28;20392;-90
2023/11/18 08:50:11;;;;;;;4.57;1.85;;;;;;;;;;5055097;28;20017;-90
2023/11/18 08:52:37;;;;;;;5.05;1.70;;;;;;;;;;5056630;28;20116;-90
2023/11/18 08:55:17;;;;;;;3.45;1.42;;;;;;;;;;5096480;28;20113;-90
2023/11/18 08:57:57;;;;;;;3.55;1.60;;;;;;;;;;5054522;28;20032;-90
2023/11/18 09:03:07;;;;;;;7.25;1.83;;;;;;;;;;5055880;28;20043;-90
2023/11/18 09:05:32;;;;;;;5.10;1.60;;;;;;;;;;5053476;28;20463;-90
2023/11/18 09:08:00;;;;;;;10.02;2.38;;;;;;;;;;5055587;28;20112;-90
2023/11/18 09:10:25;;;;;;;3.45;1.48;;;;;;;;;;5060068;28;20035;-90
2023/11/18 09:12:52;;;;;;;6.07;2.28;;;;;;;;;;5062965;28;20021;-90
2023/11/18 09:15:22;;;;;;;3.58;1.52;;;;;;;;;;5066296;28;20567;-90
2023/11/18 09:17:48;;;;;;;9.10;2.05;;;;;;;;;;5058907;28;20025;-90
2023/11/18 09:20:16;;;;;;;8.50;1.95;;;;;;;;;;5054206;28;20650;-90
2023/11/18 09:22:46;;;;;;;3.72;1.88;;;;;;;;;;5054067;28;20542;-90
2023/11/18 09:25:12;;;;;;;2.65;1.40;;;;;;;;;;5054108;28;20357;-90
2023/11/18 09:27:39;;;;;;;4.05;1.75;;;;;;;;;;5045833;28;20044;-90
2023/11/18 09:30:13;;;;;;;6.00;1.60;;;;;;;;;;5051455;28;20095;-90
2023/11/18 09:32:39;;;;;;;3.05;1.40;;;;;;;;;;5053633;28;20104;-90
2023/11/18 09:35:09;;;;;;;2.65;1.23;;;;;;;;;;5053749;28;20756;-90
2023/11/18 09:37:34;;;;;;;8.63;1.67;;;;;;;;;;5053474;28;20029;-90
2023/11/18 09:40:11;;;;;;;5.65;2.20;;;;;;;;;;5054524;28;20040;-90
2023/11/18 09:42:37;;;;;;;3.22;1.23;;;;;;;;;;5041001;28;20406;-90
2023/11/18 09:45:05;;;;;;;6.40;1.50;;;;;;;;;;5055244;28;20092;-91
2023/11/18 09:47:32;;;;;;;5.95;1.70;;;;;;;;;;5053364;28;20570;-91
2023/11/18 09:49:59;;;;;;;4.15;1.38;;;;;;;;;;5055219;28;20060;-90
2023/11/18 09:52:26;;;;;;;8.77;1.45;;;;;;;;;;5054195;28;20025;-91
2023/11/18 09:54:55;;;;;;;2.88;1.15;;;;;;;;;;5053908;28;20025;-90
2023/11/18 09:57:39;;;;;;;5.18;1.25;;;;;;;;;;5049611;28;20028;-91
2023/11/18 10:02:52;;;;;;;4.93;1.73;;;;;;;;;;5052403;28;20044;-90
2023/11/18 10:05:26;;;;;;;4.65;1.15;;;;;;;;;;5063224;28;20035;-91
2023/11/18 10:07:52;;;;;;;6.82;1.60;;;;;;;;;;5054658;28;20119;-91
2023/11/18 10:10:20;;;;;;;9.80;1.35;;;;;;;;;;5052862;28;20472;-91
2023/11/18 10:12:51;;;;;;;3.40;1.88;;;;;;;;;;5055813;28;20027;-90
2023/11/18 10:15:17;;;;;;;0.97;0.37;;;;;;;;;;5053245;28;20052;-90
2023/11/18 10:17:57;;;;;;;4.47;1.13;;;;;;;;;;5048283;28;20025;-90
2023/11/18 10:20:44;;;;;;;3.63;1.33;;;;;;;;;;5053246;28;20361;-89
2023/11/18 10:23:10;;;;;;;4.03;1.95;;;;;;;;;;5083787;28;20107;-91
2023/11/18 10:25:40;;;;;;;4.32;1.38;;;;;;;;;;5048382;28;20465;-90
2023/11/18 10:28:05;;;;;;;3.75;1.38;;;;;;;;;;5045887;28;20439;-91
2023/11/18 10:30:33;;;;;;;3.90;1.30;;;;;;;;;;5048188;28;20101;-91
2023/11/18 10:33:07;;;;;;;3.00;1.35;;;;;;;;;;5043896;28;20487;-91
2023/11/18 10:35:34;;;;;;;5.35;1.40;;;;;;;;;;5048335;28;20512;-91
2023/11/18 10:38:01;;;;;;;3.47;1.55;;;;;;;;;;5053341;28;20123;-92
2023/11/18 10:40:27;;;;;;;4.28;1.48;;;;;;;;;;5051621;28;20021;-90
2023/11/18 10:42:52;;;;;;;5.15;1.83;;;;;;;;;;5039065;28;20037;-91
2023/11/18 10:45:27;;;;;;;6.32;1.50;;;;;;;;;;5051585;28;20083;-91
2023/11/18 10:47:55;;;;;;;2.78;1.25;;;;;;;;;;5053082;28;20028;-90
2023/11/18 10:50:22;;;;;;;7.45;1.55;;;;;;;;;;5080037;28;20082;-91
2023/11/18 10:52:48;;;;;;;3.97;1.45;;;;;;;;;;5052992;28;20025;-89
2023/11/18 10:55:19;;;;;;;2.65;1.00;;;;;;;;;;5053692;28;20021;-91
2023/11/18 10:57:45;;;;;;;3.80;0.65;;;;;;;;;;5052274;28;20036;-90
2023/11/18 11:00:14;;;;;;;4.15;1.10;;;;;;;;;;5053232;28;20044;-90
2023/11/18 11:02:41;;;;;;;5.60;1.50;;;;;;;;;;5061684;28;20104;-90
2023/11/18 11:05:07;;;;;;;3.55;1.10;;;;;;;;;;5052579;28;20056;-89
2023/11/18 11:07:32;;;;;;;3.03;1.58;;;;;;;;;;5052757;28;20013;-89
2023/11/18 11:09:59;;;;;;;0.82;0.55;;;;;;;;;;5052711;28;20384;-90
2023/11/18 11:12:25;;;;;;;1.63;0.60;;;;;;;;;;5053883;28;20389;-90
2023/11/18 11:14:56;;;;;;;2.35;0.80;;;;;;;;;;5052508;28;20380;-89
2023/11/18 11:17:30;;;;;;;5.67;1.13;;;;;;;;;;5052069;28;20021;-90
2023/11/18 11:20:12;;;;;;;2.67;0.90;;;;;;;;;;5085626;28;20021;-90
2023/11/18 11:23:05;;;;;;;4.15;1.17;;;;;;;;;;5052523;28;20095;-90
2023/11/18 11:25:53;;;;;;;6.38;1.67;;;;;;;;;;5026162;28;20028;-89
2023/11/18 11:28:22;;;;;;;3.33;0.90;;;;;;;;;;5045729;28;20029;-89
2023/11/18 11:30:53;;;;;;;4.15;1.23;;;;;;;;;;5053086;28;20025;-89
2023/11/18 11:33:27;;;;;;;3.13;1.30;;;;;;;;;;5053425;28;20506;-89
2023/11/18 11:35:57;;;;;;;2.42;1.08;;;;;;;;;;5053017;28;20021;-88
2023/11/18 11:38:22;;;;;;;6.15;1.45;;;;;;;;;;5052005;28;20021;-89
2023/11/18 11:40:49;;;;;;;1.83;0.85;;;;;;;;;;5051902;28;20017;-89
2023/11/18 11:43:21;;;;;;;4.95;1.20;;;;;;;;;;5053048;28;20021;-89
2023/11/18 11:45:48;;;;;;;1.95;0.82;;;;;;;;;;5051877;28;20028;-88
2023/11/18 11:48:14;;;;;;;3.58;1.17;;;;;;;;;;5052015;28;20548;-88
2023/11/18 11:50:47;;;;;;;2.22;0.85;;;;;;;;;;5052711;28;20033;-89
2023/11/18 11:53:16;;;;;;;3.95;1.08;;;;;;;;;;5062047;28;20021;-88
2023/11/18 11:55:46;;;;;;;3.05;0.82;;;;;;;;;;5054349;28;20032;-87
2023/11/18 11:58:31;;;;;;;2.03;0.47;;;;;;;;;;5056710;28;20471;-88
2023/11/18 12:00:58;;;;;;;5.07;1.13;;;;;;;;;;5052677;28;20024;-88
2023/11/18 12:03:24;;;;;;;3.95;1.00;;;;;;;;;;5051672;28;20020;-88
2023/11/18 12:05:52;;;;;;;0.50;0.38;;;;;;;;;;5053227;28;20025;-88
2023/11/18 12:08:18;;;;;;;4.15;0.63;;;;;;;;;;5060299;28;20106;-88
2023/11/18 12:10:51;;;;;;;1.08;0.60;;;;;;;;;;5052075;28;20689;-88
2023/11/18 12:13:19;;;;;;;2.30;0.90;;;;;;;;;;5054625;28;20038;-87
2023/11/18 12:15:53;;;;;;;0.20;0.10;;;;;;;;;;5051261;28;20036;-87
2023/11/18 12:18:21;;;;;;;2.22;0.82;;;;;;;;;;5052460;28;20246;-86
2023/11/18 12:20:57;;;;;;;1.15;0.40;;;;;;;;;;5052257;28;20408;-87
2023/11/18 12:23:26;;;;;;;3.58;0.60;;;;;;;;;;5051347;28;20028;-87
2023/11/18 12:25:54;;;;;;;4.80;0.77;;;;;;;;;;5051479;28;20476;-87
2023/11/18 12:28:30;;;;;;;1.10;0.38;;;;;;;;;;5051300;28;20025;-87
2023/11/18 12:30:56;;;;;;;1.20;0.50;;;;;;;;;;5051570;28;20055;-87
2023/11/18 12:33:26;;;;;;;1.10;0.38;;;;;;;;;;5051133;28;20032;-86
2023/11/18 12:35:52;;;;;;;0.68;0.60;;;;;;;;;;5051397;28;20017;-87
2023/11/18 12:38:40;;;;;;;1.73;0.57;;;;;;;;;;5050797;28;20021;-87
2023/11/18 12:41:07;;;;;;;0.80;0.60;;;;;;;;;;5043302;28;20014;-86
2023/11/18 12:43:38;;;;;;;4.65;0.88;;;;;;;;;;5051400;28;20031;-87
2023/11/18 12:46:23;;;;;;;3.17;1.20;;;;;;;;;;5051332;28;20100;-87
2023/11/18 12:48:49;;;;;;;2.53;0.47;;;;;;;;;;5051165;28;20120;-86
2023/11/18 12:51:19;;;;;;;4.13;1.27;;;;;;;;;;5051211;28;20109;-87
2023/11/18 12:53:49;;;;;;;1.58;0.75;;;;;;;;;;5057620;28;20332;-85
2023/11/18 12:56:16;;;;;;;0.95;0.55;;;;;;;;;;5050860;28;20092;-87
2023/11/18 12:58:43;;;;;;;0.22;0.20;;;;;;;;;;5050378;28;20137;-86
2023/11/18 13:01:14;;;;;;;3.08;0.70;;;;;;;;;;5082967;28;20021;-86
2023/11/18 13:03:41;;;;;;;0.00;0.00;;;;;;;;;;5050857;28;20148;-86
2023/11/18 13:06:08;;;;;;;0.88;0.60;;;;;;;;;;5049405;28;20416;-87
2023/11/18 13:08:34;;;;;;;0.25;0.20;;;;;;;;;;5050585;28;20021;-86
2023/11/18 13:11:04;;;;;;;0.75;0.30;;;;;;;;;;5050434;28;20025;-86
2023/11/18 13:13:31;;;;;;;0.98;0.60;;;;;;;;;;5061166;28;20403;-87
2023/11/18 13:15:58;;;;;;;1.42;0.50;;;;;;;;;;5050669;28;20025;-88
2023/11/18 13:18:26;;;;;;;1.83;0.90;;;;;;;;;;5052465;28;20362;-86
2023/11/18 13:20:58;;;;;;;2.63;0.40;;;;;;;;;;5052766;28;20106;-87
2023/11/18 13:23:30;;;;;;;0.77;0.50;;;;;;;;;;5055516;28;20544;-87
2023/11/18 13:25:56;;;;;;;2.15;0.52;;;;;;;;;;5062979;28;20033;-87
2023/11/18 13:28:25;;;;;;;0.55;0.38;;;;;;;;;;5054107;28;20357;-87
2023/11/18 13:30:50;;;;;;;0.65;0.40;;;;;;;;;;5054305;28;20396;-87
2023/11/18 13:33:16;;;;;;;2.30;0.35;;;;;;;;;;5054654;28;20025;-87
2023/11/18 13:35:43;;;;;;;0.73;0.50;;;;;;;;;;5053891;28;20432;-87
2023/11/18 13:38:08;;;;;;;1.60;0.50;;;;;;;;;;5053821;28;20120;-87
2023/11/18 13:40:47;;;;;;;1.00;0.40;;;;;;;;;;5053251;28;20045;-87
2023/11/18 13:43:12;;;;;;;3.47;0.40;;;;;;;;;;5055006;28;20461;-87
2023/11/18 13:45:38;;;;;;;1.98;0.60;;;;;;;;;;5054621;28;20032;-86
2023/11/18 13:48:04;;;;;;;1.58;0.45;;;;;;;;;;5053853;28;20021;-86
2023/11/18 13:50:30;;;;;;;1.63;0.60;;;;;;;;;;5053527;28;20431;-87
2023/11/18 13:52:56;;;;;;;4.57;0.38;;;;;;;;;;5057224;28;20052;-86
2023/11/18 13:55:27;;;;;;;1.90;0.63;;;;;;;;;;5054438;28;20036;-86
2023/11/18 13:57:57;;;;;;;0.80;0.60;;;;;;;;;;5040416;28;20017;-86
2023/11/18 14:00:26;;;;;;;1.73;0.98;;;;;;;;;;5053958;28;20032;-86
2023/11/18 14:02:52;;;;;;;1.42;0.90;;;;;;;;;;5053911;28;20380;-87
2023/11/18 14:05:19;;;;;;;1.05;0.75;;;;;;;;;;5053646;28;20013;-86
2023/11/18 14:07:45;;;;;;;1.90;0.60;;;;;;;;;;5054949;28;20025;-86
2023/11/18 14:10:13;;;;;;;0.88;0.50;;;;;;;;;;5053671;28;20013;-86
2023/11/18 14:12:57;;;;;;;1.60;0.52;;;;;;;;;;5054796;28;20022;-86
2023/11/18 14:15:23;;;;;;;0.95;0.60;;;;;;;;;;5043108;28;20086;-85
2023/11/18 14:17:49;;;;;;;0.63;0.32;;;;;;;;;;5053625;28;20117;-86
2023/11/18 14:20:14;;;;;;;0.20;0.20;;;;;;;;;;5053553;28;20025;-87
2023/11/18 14:22:42;;;;;;;2.35;0.65;;;;;;;;;;5053346;28;20388;-86
2023/11/18 14:25:07;;;;;;;1.27;0.52;;;;;;;;;;5053579;28;20044;-86
2023/11/18 14:27:32;;;;;;;1.70;0.45;;;;;;;;;;5053305;28;20395;-86
2023/11/18 14:30:00;;;;;;;0.55;0.30;;;;;;;;;;5053569;28;20028;-86
2023/11/18 14:32:26;;;;;;;0.60;0.40;;;;;;;;;;5039308;28;20028;-86
2023/11/18 14:34:51;;;;;;;0.73;0.40;;;;;;;;;;5053340;28;20021;-87
2023/11/18 14:37:19;;;;;;;0.57;0.32;;;;;;;;;;5053034;28;20108;-86
2023/11/18 14:39:45;;;;;;;1.70;0.95;;;;;;;;;;5053394;28;20154;-86
2023/11/18 14:42:10;;;;;;;0.98;0.50;;;;;;;;;;5085795;28;20025;-86
2023/11/18 14:44:36;;;;;;;0.90;0.30;;;;;;;;;;5052860;28;20112;-86
2023/11/18 14:47:01;;;;;;;3.35;0.60;;;;;;;;;;5038677;28;20766;-86